Time;durP1;ratioP1;P1;durP2;ratioP2;P2;SDS_P1;SDS_P2;PMS_P1;PMS_P2;Temp;Humidity;BMP_temperature;BMP_pressure;BME280_temperature;BME280_humidity;BME280_pressure;Samples;Min_cycle;Max_cycle;Signal;HPM_P1;HPM_P2
2023/11/30 00:00:10;;;;;;;6.17;5.50;;;1.20;99.90;;;;;;4975006;28;20215;-69
2023/11/30 00:02:35;;;;;;;6.07;5.47;;;1.20;99.90;;;;;;4975452;28;20176;-68
2023/11/30 00:05:02;;;;;;;6.87;5.60;;;1.20;99.90;;;;;;4979297;28;20474;-69
2023/11/30 00:07:28;;;;;;;6.10;5.40;;;1.10;99.90;;;;;;4983574;28;20526;-69
2023/11/30 00:09:53;;;;;;;6.20;5.60;;;1.10;99.90;;;;;;4984574;28;20485;-69
2023/11/30 00:12:19;;;;;;;7.13;5.30;;;1.20;99.90;;;;;;4973248;28;20187;-71
2023/11/30 00:14:44;;;;;;;6.70;6.00;;;1.10;99.90;;;;;;4967952;28;20184;-69
2023/11/30 00:17:10;;;;;;;5.97;5.37;;;1.10;99.90;;;;;;4976190;28;20246;-70
2023/11/30 00:19:35;;;;;;;6.50;5.43;;;1.10;99.90;;;;;;4972704;28;20196;-69
2023/11/30 00:22:01;;;;;;;8.03;5.67;;;1.10;99.90;;;;;;4973243;28;20175;-70
2023/11/30 00:24:27;;;;;;;10.50;6.53;;;1.10;99.90;;;;;;4976383;28;20180;-69
2023/11/30 00:26:52;;;;;;;10.33;6.93;;;1.00;99.90;;;;;;4978748;28;20497;-69
2023/11/30 00:29:18;;;;;;;8.70;7.30;;;1.00;99.90;;;;;;4984876;28;20686;-69
2023/11/30 00:31:43;;;;;;;9.93;7.30;;;1.00;99.90;;;;;;4982421;28;20187;-69
2023/11/30 00:34:09;;;;;;;7.30;6.47;;;1.00;99.90;;;;;;4975607;28;20192;-69
2023/11/30 00:36:34;;;;;;;8.13;7.33;;;1.10;99.90;;;;;;4977391;28;20203;-69
2023/11/30 00:39:00;;;;;;;8.10;7.40;;;1.10;99.90;;;;;;4984869;28;20196;-70
2023/11/30 00:41:25;;;;;;;8.90;6.30;;;1.10;99.90;;;;;;4974273;28;20204;-70
2023/11/30 00:43:51;;;;;;;7.47;5.97;;;1.10;99.90;;;;;;4984371;28;20267;-70
2023/11/30 00:46:17;;;;;;;7.20;6.40;;;1.00;99.90;;;;;;4983870;28;20258;-70
2023/11/30 00:48:42;;;;;;;8.03;6.53;;;1.00;99.90;;;;;;4990322;28;20286;-69
2023/11/30 00:51:09;;;;;;;7.23;6.53;;;1.00;99.90;;;;;;4982518;28;20259;-69
2023/11/30 00:53:35;;;;;;;6.10;5.50;;;1.00;99.90;;;;;;4971058;28;20187;-70
2023/11/30 00:56:00;;;;;;;8.20;6.70;;;1.00;99.90;;;;;;4981012;28;20458;-70
2023/11/30 00:58:26;;;;;;;8.90;7.60;;;1.00;99.90;;;;;;4984266;28;20590;-69
2023/11/30 01:00:52;;;;;;;8.70;5.73;;;1.00;99.90;;;;;;4982689;28;20672;-69
2023/11/30 01:03:17;;;;;;;7.47;5.67;;;1.00;99.90;;;;;;4983705;28;20183;-69
2023/11/30 01:05:43;;;;;;;6.77;6.07;;;1.00;99.90;;;;;;4985905;28;20180;-69
2023/11/30 01:08:08;;;;;;;7.83;6.67;;;1.00;99.90;;;;;;4976117;28;20621;-70
2023/11/30 01:10:34;;;;;;;7.87;6.87;;;1.10;99.90;;;;;;4976154;28;20180;-69
2023/11/30 01:12:59;;;;;;;8.40;6.57;;;1.00;99.90;;;;;;4979906;28;20179;-70
2023/11/30 01:15:25;;;;;;;7.60;6.83;;;1.10;99.90;;;;;;4968497;28;20242;-69
2023/11/30 01:17:50;;;;;;;6.17;5.60;;;1.10;99.90;;;;;;4976514;28;20201;-70
2023/11/30 01:20:17;;;;;;;6.83;5.67;;;1.10;99.90;;;;;;4986403;28;20630;-69
2023/11/30 01:22:42;;;;;;;7.80;6.30;;;1.00;99.90;;;;;;4978521;28;20180;-69
2023/11/30 01:25:08;;;;;;;6.37;5.70;;;1.00;99.90;;;;;;4982250;28;20447;-69
2023/11/30 01:27:33;;;;;;;11.40;8.17;;;1.10;99.90;;;;;;4986067;28;20179;-69
2023/11/30 01:29:59;;;;;;;7.80;6.60;;;1.10;99.90;;;;;;4983032;28;20187;-69
2023/11/30 01:32:24;;;;;;;11.10;6.57;;;1.10;99.90;;;;;;4977083;28;20193;-69
2023/11/30 01:34:50;;;;;;;7.90;6.80;;;1.00;99.90;;;;;;4975748;28;20177;-70
2023/11/30 01:37:15;;;;;;;8.93;6.70;;;1.10;99.90;;;;;;4970646;28;20207;-69
2023/11/30 01:39:41;;;;;;;7.43;6.73;;;1.00;99.90;;;;;;4985297;28;20200;-70
2023/11/30 01:42:06;;;;;;;7.47;6.43;;;0.90;99.90;;;;;;4983497;28;20175;-69
2023/11/30 01:44:32;;;;;;;7.53;6.50;;;0.90;99.90;;;;;;4982709;28;20589;-69
2023/11/30 01:46:58;;;;;;;8.67;7.07;;;0.90;99.90;;;;;;4979326;28;20657;-69
2023/11/30 01:49:23;;;;;;;6.97;6.30;;;0.90;99.90;;;;;;4981704;28;20210;-69
2023/11/30 01:51:49;;;;;;;10.27;6.60;;;0.90;99.90;;;;;;4984780;28;20438;-69
2023/11/30 01:54:15;;;;;;;10.13;7.33;;;0.80;99.90;;;;;;4981051;28;20287;-69
2023/11/30 01:56:42;;;;;;;6.77;5.80;;;0.90;99.90;;;;;;4974453;28;20496;-68
2023/11/30 01:59:08;;;;;;;7.60;6.80;;;0.90;99.90;;;;;;4973523;28;20511;-68
2023/11/30 02:01:35;;;;;;;7.23;6.50;;;0.90;99.90;;;;;;4976804;28;20427;-69
2023/11/30 02:04:15;;;;;;;9.07;6.67;;;0.90;99.90;;;;;;4977274;28;20455;-69
2023/11/30 02:06:42;;;;;;;8.13;7.33;;;0.90;99.90;;;;;;4959387;28;20945;-69
2023/11/30 02:09:08;;;;;;;7.23;6.53;;;0.80;99.90;;;;;;4986824;28;20454;-68
2023/11/30 02:11:34;;;;;;;8.00;6.20;;;0.80;99.90;;;;;;4983020;28;20526;-68
2023/11/30 02:13:59;;;;;;;9.17;7.20;;;0.80;99.90;;;;;;4986264;28;20180;-69
2023/11/30 02:16:25;;;;;;;8.83;6.03;;;0.80;99.90;;;;;;4982070;28;20957;-68
2023/11/30 02:18:50;;;;;;;6.73;5.37;;;0.70;99.90;;;;;;4965501;28;20203;-69
2023/11/30 02:21:16;;;;;;;7.70;6.50;;;0.70;99.90;;;;;;4974549;28;20670;-69
2023/11/30 02:23:41;;;;;;;8.00;5.90;;;0.70;99.90;;;;;;4985196;28;20191;-69
2023/11/30 02:26:07;;;;;;;7.40;6.70;;;0.70;99.90;;;;;;4980176;28;20184;-68
2023/11/30 02:28:33;;;;;;;9.97;6.10;;;0.60;99.90;;;;;;4976758;28;20200;-69
2023/11/30 02:30:58;;;;;;;15.50;11.80;;;0.60;99.90;;;;;;4991639;28;20175;-68
2023/11/30 02:33:23;;;;;;;10.60;7.37;;;0.60;99.90;;;;;;4983322;28;20208;-69
2023/11/30 02:35:49;;;;;;;12.73;6.57;;;0.60;99.90;;;;;;4981483;28;20234;-69
2023/11/30 02:38:14;;;;;;;8.13;7.33;;;0.60;99.90;;;;;;4982369;28;20231;-69
2023/11/30 02:40:40;;;;;;;9.53;6.80;;;0.60;99.90;;;;;;4984160;28;20172;-68
2023/11/30 02:43:06;;;;;;;7.53;6.70;;;0.60;99.90;;;;;;4982027;28;20582;-70
2023/11/30 02:45:31;;;;;;;11.73;8.63;;;0.60;99.90;;;;;;4974969;28;20172;-69
2023/11/30 02:47:57;;;;;;;8.90;8.00;;;0.60;99.90;;;;;;4992769;28;20195;-70
2023/11/30 02:50:22;;;;;;;9.83;7.37;;;0.60;99.90;;;;;;4987007;28;20604;-69
2023/11/30 02:52:48;;;;;;;12.40;7.40;;;0.70;99.90;;;;;;4985920;28;20171;-69
2023/11/30 02:55:13;;;;;;;8.03;7.30;;;0.70;99.90;;;;;;4994034;28;20171;-69
2023/11/30 02:57:39;;;;;;;10.87;7.17;;;0.70;99.90;;;;;;4981674;28;20229;-69
2023/11/30 03:00:05;;;;;;;9.03;7.00;;;0.60;99.90;;;;;;4975497;28;20620;-69
2023/11/30 03:02:31;;;;;;;7.87;7.10;;;0.70;99.90;;;;;;4980580;28;20175;-69
2023/11/30 03:04:56;;;;;;;8.43;7.63;;;0.70;99.90;;;;;;4982917;28;21117;-70
2023/11/30 03:07:22;;;;;;;8.97;7.10;;;0.70;99.90;;;;;;4977411;28;20191;-70
2023/11/30 03:09:47;;;;;;;6.93;6.30;;;0.70;99.90;;;;;;4982857;28;20176;-70
2023/11/30 03:12:15;;;;;;;10.40;7.90;;;0.60;99.90;;;;;;4977607;28;20215;-70
2023/11/30 03:14:45;;;;;;;8.83;7.67;;;0.60;99.90;;;;;;4979867;28;20181;-70
2023/11/30 03:17:10;;;;;;;7.77;6.33;;;0.60;99.90;;;;;;4983879;28;20473;-69
2023/11/30 03:19:41;;;;;;;10.10;6.10;;;0.60;99.90;;;;;;4977227;28;20500;-70
2023/11/30 03:22:06;;;;;;;8.27;7.27;;;0.60;99.90;;;;;;4983482;28;20180;-70
2023/11/30 03:24:32;;;;;;;7.90;7.00;;;0.50;99.90;;;;;;4978865;28;20785;-70
2023/11/30 03:26:57;;;;;;;8.00;7.27;;;0.50;99.90;;;;;;4979773;28;20855;-69
2023/11/30 03:29:23;;;;;;;7.97;7.17;;;0.50;99.90;;;;;;4981273;28;20196;-70
2023/11/30 03:31:48;;;;;;;7.47;6.80;;;0.40;99.90;;;;;;4976977;28;20280;-70
2023/11/30 03:34:14;;;;;;;9.10;7.40;;;0.50;99.90;;;;;;4973680;28;20255;-69
2023/11/30 03:36:40;;;;;;;8.00;6.57;;;0.50;99.90;;;;;;4974631;28;20574;-70
2023/11/30 03:39:05;;;;;;;7.40;6.60;;;0.60;99.90;;;;;;4977748;28;20195;-69
2023/11/30 03:41:31;;;;;;;11.67;7.87;;;0.60;99.90;;;;;;4972954;28;20435;-70
2023/11/30 03:43:57;;;;;;;10.90;7.13;;;0.60;99.90;;;;;;4973256;28;20181;-69
2023/11/30 03:46:26;;;;;;;8.00;6.77;;;0.60;99.90;;;;;;4981753;28;20222;-68
2023/11/30 03:48:53;;;;;;;9.57;7.47;;;0.70;99.90;;;;;;4973418;28;20320;-69
2023/11/30 03:51:19;;;;;;;7.87;6.67;;;0.70;99.90;;;;;;4976080;28;20435;-69
2023/11/30 03:53:44;;;;;;;12.90;7.90;;;0.80;99.90;;;;;;4981529;28;20527;-69
2023/11/30 03:56:10;;;;;;;10.50;7.50;;;0.80;99.90;;;;;;4980066;28;20725;-69
2023/11/30 03:58:35;;;;;;;8.43;7.53;;;0.80;99.90;;;;;;4984252;28;20629;-69
2023/11/30 04:01:01;;;;;;;7.43;6.47;;;0.80;99.90;;;;;;4974561;28;20181;-69
2023/11/30 04:03:26;;;;;;;8.00;6.30;;;0.90;99.90;;;;;;4967977;28;20187;-69
2023/11/30 04:05:52;;;;;;;9.13;6.90;;;0.90;99.90;;;;;;4977189;28;20601;-69
2023/11/30 04:08:18;;;;;;;7.43;6.73;;;0.90;99.90;;;;;;4975366;28;20235;-69
2023/11/30 04:10:44;;;;;;;12.50;7.03;;;0.90;99.90;;;;;;4985923;28;20270;-69
2023/11/30 04:13:09;;;;;;;8.57;7.13;;;0.80;99.90;;;;;;4973004;28;20184;-69
2023/11/30 04:15:35;;;;;;;7.70;6.40;;;0.80;99.90;;;;;;4971596;28;20560;-69
2023/11/30 04:18:00;;;;;;;8.03;6.23;;;0.90;99.90;;;;;;4975788;28;20682;-68
2023/11/30 04:20:26;;;;;;;7.50;6.80;;;0.80;99.90;;;;;;4980291;28;20306;-69
2023/11/30 04:22:51;;;;;;;8.57;7.67;;;0.80;99.90;;;;;;4972261;28;20188;-69
2023/11/30 04:25:17;;;;;;;8.40;7.60;;;0.90;99.90;;;;;;4975284;28;20307;-68
2023/11/30 04:27:42;;;;;;;8.90;6.70;;;0.80;99.90;;;;;;4979028;28;20210;-68
2023/11/30 04:30:08;;;;;;;7.33;6.63;;;0.90;99.90;;;;;;4973352;28;20187;-68
2023/11/30 04:32:34;;;;;;;6.80;6.13;;;0.80;99.90;;;;;;4975885;28;20187;-68
2023/11/30 04:34:59;;;;;;;6.97;6.03;;;0.80;99.90;;;;;;4982498;28;20262;-69
2023/11/30 04:37:25;;;;;;;7.33;6.07;;;0.80;99.90;;;;;;4976082;28;20257;-69
2023/11/30 04:39:50;;;;;;;9.33;6.93;;;0.80;99.90;;;;;;4977045;28;20655;-69
2023/11/30 04:42:16;;;;;;;8.00;6.93;;;0.80;99.90;;;;;;4981081;28;20180;-69
2023/11/30 04:44:41;;;;;;;7.67;6.97;;;0.80;99.90;;;;;;4970268;28;20688;-69
2023/11/30 04:47:07;;;;;;;8.13;7.03;;;0.80;99.90;;;;;;4965846;28;20185;-69
2023/11/30 04:49:33;;;;;;;7.80;6.80;;;0.80;99.90;;;;;;4979180;28;20223;-69
2023/11/30 04:51:58;;;;;;;8.93;6.30;;;0.70;99.90;;;;;;4972940;28;20577;-69
2023/11/30 04:54:24;;;;;;;9.63;6.87;;;0.70;99.90;;;;;;4980146;28;20642;-69
2023/11/30 04:56:49;;;;;;;7.87;6.20;;;0.60;99.90;;;;;;4980443;28;20195;-69
2023/11/30 04:59:15;;;;;;;8.53;7.10;;;0.60;99.90;;;;;;4978594;28;20315;-69
2023/11/30 05:01:41;;;;;;;9.40;7.60;;;0.60;99.90;;;;;;4972888;28;20165;-69
2023/11/30 05:04:06;;;;;;;10.90;6.67;;;0.50;99.90;;;;;;4970372;28;20259;-69
2023/11/30 05:06:32;;;;;;;7.67;6.87;;;0.50;99.90;;;;;;4981888;28;20183;-69
2023/11/30 05:08:57;;;;;;;10.63;7.30;;;0.60;99.90;;;;;;4978243;28;20208;-69
2023/11/30 05:11:23;;;;;;;8.17;6.80;;;0.50;99.90;;;;;;4979281;28;20183;-69
2023/11/30 05:13:48;;;;;;;7.50;6.80;;;0.60;99.90;;;;;;4982101;28;20184;-69
2023/11/30 05:16:14;;;;;;;9.90;7.30;;;0.60;99.90;;;;;;4984542;28;20477;-69
2023/11/30 05:18:40;;;;;;;12.20;7.20;;;0.50;99.90;;;;;;4979541;28;20206;-69
2023/11/30 05:21:06;;;;;;;12.03;7.83;;;0.40;99.90;;;;;;4988999;28;20176;-69
2023/11/30 05:23:31;;;;;;;8.27;6.70;;;0.40;99.90;;;;;;4974706;28;20670;-69
2023/11/30 05:25:57;;;;;;;8.17;7.40;;;0.30;99.90;;;;;;4975936;28;20466;-69
2023/11/30 05:28:23;;;;;;;7.37;6.40;;;0.30;99.90;;;;;;4983146;28;20261;-68
2023/11/30 05:30:49;;;;;;;10.23;7.33;;;0.20;99.90;;;;;;4976542;28;20184;-69
2023/11/30 05:33:15;;;;;;;11.67;7.90;;;0.20;99.90;;;;;;4985314;28;20180;-69
2023/11/30 05:35:40;;;;;;;10.30;7.80;;;0.20;99.90;;;;;;4975724;28;20426;-68
2023/11/30 05:38:06;;;;;;;8.50;6.30;;;0.30;99.90;;;;;;4981914;28;20462;-69
2023/11/30 05:40:32;;;;;;;11.90;8.07;;;0.30;99.90;;;;;;4990190;28;20203;-69
2023/11/30 05:42:57;;;;;;;12.07;8.57;;;0.40;99.90;;;;;;4984138;28;20179;-69
2023/11/30 05:45:23;;;;;;;12.73;7.40;;;0.40;99.90;;;;;;4980495;28;20192;-69
2023/11/30 05:47:48;;;;;;;9.10;7.23;;;0.40;99.90;;;;;;4981312;28;20199;-69
2023/11/30 05:50:14;;;;;;;10.83;7.57;;;0.50;99.90;;;;;;4984819;28;20188;-69
2023/11/30 05:52:40;;;;;;;10.27;7.43;;;0.50;99.90;;;;;;4990287;28;20230;-69
2023/11/30 05:55:07;;;;;;;10.20;8.97;;;0.50;99.90;;;;;;4979254;28;20180;-69
2023/11/30 05:57:33;;;;;;;8.43;7.60;;;0.50;99.90;;;;;;4984482;28;20275;-69
2023/11/30 05:59:59;;;;;;;11.40;9.07;;;0.40;99.90;;;;;;5031276;23;20592;-72
2023/11/30 06:02:26;;;;;;;16.53;8.07;;;0.40;99.90;;;;;;5038063;28;21090;-72
2023/11/30 06:04:53;;;;;;;11.57;8.50;;;0.40;99.90;;;;;;5022236;28;20269;-71
2023/11/30 06:07:19;;;;;;;10.90;7.50;;;0.30;99.90;;;;;;5032562;28;20437;-72
2023/11/30 06:09:45;;;;;;;10.40;7.67;;;0.40;99.90;;;;;;5038733;28;20447;-72
2023/11/30 06:12:11;;;;;;;8.80;7.50;;;0.40;99.90;;;;;;5034225;28;20904;-72
2023/11/30 06:14:37;;;;;;;9.23;7.37;;;0.40;99.90;;;;;;5038988;28;20273;-72
2023/11/30 06:17:02;;;;;;;9.03;7.93;;;0.40;99.90;;;;;;5030200;28;20210;-72
2023/11/30 06:19:28;;;;;;;10.23;8.80;;;0.40;99.90;;;;;;5033522;28;20385;-72
2023/11/30 06:21:54;;;;;;;8.10;7.10;;;0.40;99.90;;;;;;5034027;28;20170;-72
2023/11/30 06:24:19;;;;;;;9.63;7.30;;;0.40;99.90;;;;;;5031438;28;20431;-73
2023/11/30 06:26:45;;;;;;;10.80;8.47;;;0.40;99.90;;;;;;5029983;28;20182;-72
2023/11/30 06:29:15;;;;;;;14.57;8.33;;;0.40;99.90;;;;;;5038470;28;20213;-72
2023/11/30 06:31:41;;;;;;;13.77;8.40;;;0.50;99.90;;;;;;5043367;28;20667;-72
2023/11/30 06:34:07;;;;;;;11.53;8.33;;;0.50;99.90;;;;;;5013855;28;20433;-72
2023/11/30 06:36:32;;;;;;;13.10;7.63;;;0.60;99.90;;;;;;5024458;28;20464;-72
2023/11/30 06:38:58;;;;;;;8.17;7.23;;;0.70;99.90;;;;;;5030449;28;20225;-72
2023/11/30 06:41:23;;;;;;;10.70;8.23;;;0.70;99.90;;;;;;5029283;28;20204;-72
2023/11/30 06:43:49;;;;;;;9.70;7.23;;;0.80;99.90;;;;;;5025499;28;20245;-71
2023/11/30 06:46:20;;;;;;;15.63;10.57;;;0.80;99.90;;;;;;5028772;28;20655;-71
2023/11/30 06:48:47;;;;;;;12.30;10.50;;;0.80;99.90;;;;;;5034020;28;20229;-71
2023/11/30 06:51:15;;;;;;;15.17;11.80;;;0.80;99.90;;;;;;5033229;28;20424;-71
2023/11/30 06:53:41;;;;;;;16.13;11.67;;;0.80;99.90;;;;;;5033398;28;20421;-71
2023/11/30 06:56:11;;;;;;;12.07;9.13;;;0.80;99.90;;;;;;5032057;28;20598;-71
2023/11/30 06:58:36;;;;;;;10.53;8.70;;;0.90;99.90;;;;;;5032612;28;20249;-71
2023/11/30 07:01:05;;;;;;;12.80;9.47;;;0.80;99.90;;;;;;5033221;28;20437;-71
2023/11/30 07:03:31;;;;;;;13.80;7.73;;;0.80;99.90;;;;;;5032356;28;20585;-71
2023/11/30 07:05:56;;;;;;;8.90;8.00;;;0.80;99.90;;;;;;5031120;28;20413;-71
2023/11/30 07:08:22;;;;;;;9.10;7.93;;;0.70;99.90;;;;;;5030866;28;20190;-71
2023/11/30 07:10:47;;;;;;;10.03;8.03;;;0.60;99.90;;;;;;5031155;28;20174;-71
2023/11/30 07:13:13;;;;;;;14.20;8.10;;;0.60;99.90;;;;;;5029604;28;20178;-71
2023/11/30 07:15:38;;;;;;;11.70;8.50;;;0.50;99.90;;;;;;5030878;28;20182;-71
2023/11/30 07:18:04;;;;;;;10.00;8.10;;;0.50;99.90;;;;;;5029651;28;20221;-71
2023/11/30 07:20:30;;;;;;;8.50;7.67;;;0.60;99.90;;;;;;5032645;28;20178;-71
2023/11/30 07:22:57;;;;;;;10.60;8.47;;;0.60;99.90;;;;;;5032761;28;20173;-71
2023/11/30 07:25:22;;;;;;;10.97;8.40;;;0.60;99.90;;;;;;5032676;28;20451;-71
2023/11/30 07:27:49;;;;;;;12.90;10.60;;;0.60;99.90;;;;;;5032179;28;20413;-71
2023/11/30 07:30:15;;;;;;;11.50;10.20;;;0.70;99.90;;;;;;5032607;28;20516;-71
2023/11/30 07:32:42;;;;;;;8.97;8.00;;;0.80;99.90;;;;;;5032372;28;20451;-71
2023/11/30 07:35:08;;;;;;;13.97;9.90;;;0.80;99.90;;;;;;5032370;28;20197;-71
2023/11/30 07:37:34;;;;;;;10.70;9.57;;;0.80;99.90;;;;;;5032143;28;20495;-71
2023/11/30 07:40:00;;;;;;;11.30;9.00;;;0.90;99.90;;;;;;5028224;28;20473;-71
2023/11/30 07:42:25;;;;;;;14.00;9.73;;;0.90;99.90;;;;;;5032140;28;20170;-71
2023/11/30 07:44:51;;;;;;;13.90;9.70;;;0.90;99.90;;;;;;5032413;28;20166;-71
2023/11/30 07:47:18;;;;;;;12.60;9.30;;;0.90;99.90;;;;;;5032141;28;20573;-70
2023/11/30 07:49:44;;;;;;;12.10;10.50;;;1.00;99.90;;;;;;5030609;28;20208;-69
2023/11/30 07:52:09;;;;;;;11.10;9.37;;;1.10;99.90;;;;;;5030650;28;20433;-69
2023/11/30 07:54:35;;;;;;;11.30;9.70;;;1.20;99.90;;;;;;5029381;28;20182;-69
2023/11/30 07:57:00;;;;;;;15.60;11.37;;;1.20;99.90;;;;;;5028449;28;20800;-69
2023/11/30 07:59:26;;;;;;;13.17;10.73;;;1.30;99.90;;;;;;5030835;28;20202;-70
2023/11/30 08:01:52;;;;;;;11.60;10.47;;;1.20;99.90;;;;;;5030480;28;20285;-70
2023/11/30 08:04:17;;;;;;;12.37;11.07;;;1.20;99.90;;;;;;5032064;28;20173;-70
2023/11/30 08:06:43;;;;;;;13.30;10.40;;;1.30;99.90;;;;;;5031732;28;20231;-70
2023/11/30 08:09:09;;;;;;;11.83;10.20;;;1.30;99.90;;;;;;5032095;28;20194;-70
2023/11/30 08:11:37;;;;;;;13.53;10.20;;;1.30;99.90;;;;;;5032057;28;20436;-70
2023/11/30 08:14:02;;;;;;;14.20;11.30;;;1.30;99.90;;;;;;5032046;28;20170;-70
2023/11/30 08:16:28;;;;;;;12.80;10.57;;;1.30;99.90;;;;;;5031724;28;20461;-70
2023/11/30 08:18:53;;;;;;;13.70;11.77;;;1.40;99.90;;;;;;5031884;28;20670;-70
2023/11/30 08:21:21;;;;;;;15.67;11.57;;;1.40;99.90;;;;;;5031928;28;20175;-70
2023/11/30 08:23:47;;;;;;;16.00;11.00;;;1.30;99.90;;;;;;5031803;28;20166;-70
2023/11/30 08:26:15;;;;;;;14.83;10.60;;;1.30;99.90;;;;;;5031770;28;20509;-70
2023/11/30 08:28:42;;;;;;;11.37;10.20;;;1.40;99.90;;;;;;5031672;28;20444;-70
2023/11/30 08:31:08;;;;;;;14.17;11.27;;;1.40;99.90;;;;;;5031893;28;20420;-70
2023/11/30 08:33:34;;;;;;;13.83;11.00;;;1.40;99.90;;;;;;5031935;28;20956;-70
2023/11/30 08:36:00;;;;;;;13.70;11.00;;;1.40;99.90;;;;;;5031477;28;20288;-70
2023/11/30 08:38:26;;;;;;;12.60;10.80;;;1.40;99.90;;;;;;5030753;28;20437;-71
2023/11/30 08:40:52;;;;;;;15.37;11.30;;;1.40;99.90;;;;;;5030675;28;20928;-71
2023/11/30 08:43:18;;;;;;;12.53;10.73;;;1.50;99.90;;;;;;5031828;28;20424;-71
2023/11/30 08:45:44;;;;;;;15.47;11.87;;;1.60;99.90;;;;;;5031811;28;20409;-70
2023/11/30 08:48:09;;;;;;;17.43;13.57;;;1.70;99.90;;;;;;5035181;28;20273;-71
2023/11/30 08:50:36;;;;;;;14.23;11.80;;;1.90;99.90;;;;;;5035765;28;20170;-70
2023/11/30 08:53:01;;;;;;;17.77;12.67;;;2.00;99.90;;;;;;5035659;28;20174;-70
2023/11/30 08:55:27;;;;;;;14.60;12.07;;;2.10;99.90;;;;;;5035529;28;20421;-71
2023/11/30 08:57:52;;;;;;;13.00;11.67;;;2.20;99.90;;;;;;5034986;28;20244;-71
2023/11/30 09:00:18;;;;;;;12.43;10.80;;;2.10;99.90;;;;;;5032790;28;20240;-71
2023/11/30 09:02:44;;;;;;;13.23;11.33;;;2.10;99.90;;;;;;5035260;28;20225;-71
2023/11/30 09:05:12;;;;;;;13.93;12.40;;;2.10;99.90;;;;;;5035386;28;20417;-71
2023/11/30 09:07:37;;;;;;;14.00;11.80;;;2.10;99.90;;;;;;5034988;28;20197;-71
2023/11/30 09:10:04;;;;;;;16.40;12.13;;;2.20;99.90;;;;;;5035225;28;20441;-71
2023/11/30 09:12:30;;;;;;;16.33;11.20;;;2.30;99.90;;;;;;5035024;28;20181;-71
2023/11/30 09:14:56;;;;;;;14.97;11.63;;;2.40;99.90;;;;;;5035106;28;20429;-71
2023/11/30 09:17:22;;;;;;;12.43;11.10;;;2.50;99.90;;;;;;5034830;28;20201;-71
2023/11/30 09:19:47;;;;;;;13.10;11.37;;;2.70;99.90;;;;;;5035011;28;20440;-70
2023/11/30 09:22:13;;;;;;;12.50;11.17;;;2.80;99.90;;;;;;5035016;28;20174;-70
2023/11/30 09:24:38;;;;;;;15.63;11.67;;;2.80;99.90;;;;;;5034994;28;20254;-70
2023/11/30 09:27:04;;;;;;;16.20;12.80;;;2.70;99.90;;;;;;5034695;28;20170;-71
2023/11/30 09:29:34;;;;;;;15.23;11.63;;;2.80;99.90;;;;;;5032606;28;20201;-70
2023/11/30 09:32:03;;;;;;;13.13;11.80;;;2.80;99.90;;;;;;5031914;28;20685;-70
2023/11/30 09:34:30;;;;;;;11.53;10.40;;;2.90;99.90;;;;;;5034914;28;20421;-70
2023/11/30 09:36:55;;;;;;;13.13;10.63;;;3.10;99.90;;;;;;5034443;28;21039;-70
2023/11/30 09:39:21;;;;;;;15.93;11.57;;;3.30;99.90;;;;;;5034711;28;20437;-70
2023/11/30 09:41:47;;;;;;;15.67;12.07;;;3.40;99.90;;;;;;5034888;28;20174;-71
2023/11/30 09:44:12;;;;;;;14.80;11.93;;;3.50;99.90;;;;;;5034716;28;20635;-71
2023/11/30 09:46:38;;;;;;;12.30;11.00;;;3.60;99.90;;;;;;5034364;28;20170;-71
2023/11/30 09:49:06;;;;;;;14.30;11.40;;;3.70;99.90;;;;;;5034466;28;20272;-70
2023/11/30 09:51:32;;;;;;;11.10;10.00;;;3.80;99.90;;;;;;5034548;28;20421;-71
2023/11/30 09:53:58;;;;;;;20.13;12.87;;;3.90;99.90;;;;;;5034514;28;20475;-71
2023/11/30 09:56:27;;;;;;;15.13;11.67;;;4.00;99.90;;;;;;5030553;28;20485;-71
2023/11/30 09:58:53;;;;;;;15.20;11.80;;;4.00;99.90;;;;;;5032866;28;20206;-71
2023/11/30 10:01:20;;;;;;;15.27;12.83;;;4.10;99.90;;;;;;5031611;28;20425;-70
2023/11/30 10:03:46;;;;;;;14.03;11.90;;;4.30;99.90;;;;;;5031273;28;21009;-70
2023/11/30 10:06:12;;;;;;;17.13;13.47;;;4.40;99.90;;;;;;5032949;28;20449;-70
2023/11/30 10:08:39;;;;;;;16.90;12.87;;;4.50;99.90;;;;;;5033844;28;20441;-70
2023/11/30 10:11:06;;;;;;;14.63;12.27;;;4.50;99.90;;;;;;5032384;28;20441;-70
2023/11/30 10:13:32;;;;;;;12.67;11.37;;;4.40;99.90;;;;;;5032974;28;20808;-71
2023/11/30 10:15:57;;;;;;;12.60;10.83;;;4.40;99.90;;;;;;5032664;28;20543;-71
2023/11/30 10:18:25;;;;;;;14.10;11.80;;;4.20;99.90;;;;;;5031962;28;20198;-70
2023/11/30 10:20:51;;;;;;;14.37;11.63;;;4.00;99.90;;;;;;5031143;28;20563;-71
2023/11/30 10:23:16;;;;;;;13.47;12.13;;;3.70;99.90;;;;;;5032710;28;20441;-71
2023/11/30 10:25:42;;;;;;;16.13;12.13;;;3.60;99.90;;;;;;5032201;28;20186;-71
2023/11/30 10:28:14;;;;;;;14.50;11.23;;;3.90;99.90;;;;;;5033562;28;20205;-71
2023/11/30 10:30:41;;;;;;;11.80;10.40;;;4.30;99.90;;;;;;5031978;28;20179;-71
2023/11/30 10:33:14;;;;;;;12.40;10.90;;;4.60;99.90;;;;;;5032376;28;20469;-71
2023/11/30 10:35:44;;;;;;;11.83;10.57;;;5.00;99.90;;;;;;5033553;28;20417;-72
2023/11/30 10:38:36;;;;;;;12.63;10.77;;;5.10;99.90;;;;;;5033251;28;20440;-70
2023/11/30 10:41:12;;;;;;;13.23;11.83;;;5.10;99.90;;;;;;5008773;28;20424;-71
2023/11/30 10:43:41;;;;;;;15.63;10.80;;;5.40;99.90;;;;;;5013791;28;20877;-71
2023/11/30 10:46:07;;;;;;;15.90;11.63;;;6.10;99.90;;;;;;5013963;28;20405;-71
2023/11/30 10:48:36;;;;;;;13.23;10.90;;;6.00;99.90;;;;;;5013276;28;20460;-70
2023/11/30 10:51:04;;;;;;;11.90;10.30;;;6.20;99.90;;;;;;5021807;28;20423;-70
2023/11/30 10:53:44;;;;;;;15.80;11.70;;;6.30;99.90;;;;;;5031982;28;20447;-71
2023/11/30 10:56:12;;;;;;;13.10;11.63;;;6.20;99.90;;;;;;5033082;28;20457;-70
2023/11/30 10:58:37;;;;;;;14.50;10.80;;;6.00;99.90;;;;;;5032906;28;20992;-70
2023/11/30 11:01:04;;;;;;;14.50;11.87;;;5.90;99.90;;;;;;5033258;28;20408;-71
2023/11/30 11:03:31;;;;;;;13.33;10.60;;;5.90;99.90;;;;;;5033358;28;20257;-70
2023/11/30 11:05:56;;;;;;;10.67;9.57;;;6.00;99.90;;;;;;5033125;28;20921;-70
2023/11/30 11:08:23;;;;;;;12.53;10.67;;;5.90;99.90;;;;;;5031771;28;20437;-68
2023/11/30 11:10:50;;;;;;;14.63;11.03;;;5.80;99.90;;;;;;5024116;28;20258;-69
2023/11/30 11:13:24;;;;;;;10.30;9.30;;;5.60;99.90;;;;;;5015519;28;20936;-69
2023/11/30 11:16:00;;;;;;;14.50;10.23;;;5.30;99.90;;;;;;5013058;28;20422;-72
2023/11/30 11:18:32;;;;;;;12.83;10.60;;;5.20;99.90;;;;;;5031482;28;20930;-71
2023/11/30 11:20:59;;;;;;;13.83;11.37;;;5.10;99.90;;;;;;5032618;28;20417;-71
2023/11/30 11:23:35;;;;;;;14.20;11.00;;;4.80;99.90;;;;;;5027515;28;20417;-69
2023/11/30 11:26:05;;;;;;;11.93;10.73;;;4.70;99.90;;;;;;5028667;28;20555;-70
2023/11/30 11:28:31;;;;;;;11.63;10.13;;;4.80;99.90;;;;;;5022438;28;20468;-69
2023/11/30 11:30:57;;;;;;;32.57;19.73;;;4.80;99.90;;;;;;5021164;28;20469;-68
2023/11/30 11:33:24;;;;;;;13.20;11.10;;;4.60;99.90;;;;;;5024135;28;20923;-71
2023/11/30 11:35:49;;;;;;;12.23;10.13;;;4.40;99.90;;;;;;5022174;28;21247;-68
2023/11/30 11:38:15;;;;;;;14.07;9.63;;;4.20;99.90;;;;;;5024801;28;20493;-70
2023/11/30 11:40:41;;;;;;;11.13;9.50;;;4.30;99.90;;;;;;5032555;28;20250;-71
2023/11/30 11:43:07;;;;;;;10.20;9.20;;;4.30;99.90;;;;;;5025093;28;20551;-67
2023/11/30 11:45:33;;;;;;;15.20;10.37;;;4.30;99.90;;;;;;5023250;28;20926;-67
2023/11/30 11:48:01;;;;;;;11.60;9.90;;;4.30;99.90;;;;;;5022723;28;20512;-70
2023/11/30 11:50:27;;;;;;;12.43;10.30;;;4.20;99.90;;;;;;5015293;28;20449;-70
2023/11/30 11:53:03;;;;;;;12.00;10.73;;;4.00;99.90;;;;;;5031002;28;20777;-70
2023/11/30 11:55:29;;;;;;;11.07;9.87;;;4.10;99.90;;;;;;5032506;28;20829;-70
2023/11/30 11:57:55;;;;;;;11.03;9.90;;;4.10;99.90;;;;;;5031820;28;20460;-70
2023/11/30 12:00:21;;;;;;;10.80;9.23;;;4.20;99.90;;;;;;5076243;22;20491;-69
2023/11/30 12:02:48;;;;;;;10.73;9.53;;;4.30;99.90;;;;;;5062783;28;20177;-70
2023/11/30 12:05:25;;;;;;;13.40;9.17;;;4.30;99.90;;;;;;5062129;28;20506;-70
2023/11/30 12:07:59;;;;;;;13.10;10.90;;;4.30;99.90;;;;;;5061635;28;20489;-70
2023/11/30 12:10:27;;;;;;;11.00;9.80;;;4.40;99.90;;;;;;5042340;28;20543;-70
2023/11/30 12:12:53;;;;;;;13.40;10.10;;;4.30;99.90;;;;;;5042545;28;20427;-69
2023/11/30 12:15:19;;;;;;;11.80;10.37;;;4.30;99.90;;;;;;5046161;28;20430;-69
2023/11/30 12:17:45;;;;;;;11.90;9.90;;;4.10;99.90;;;;;;5047716;28;20201;-69
2023/11/30 12:20:10;;;;;;;12.23;9.97;;;4.00;99.90;;;;;;5042309;28;20200;-69
2023/11/30 12:22:36;;;;;;;10.93;9.80;;;4.00;99.90;;;;;;5051283;28;20643;-69
2023/11/30 12:25:02;;;;;;;13.20;10.30;;;4.00;99.90;;;;;;5051966;28;20180;-69
2023/11/30 12:27:28;;;;;;;11.70;9.33;;;4.20;99.90;;;;;;5051670;28;20696;-69
2023/11/30 12:29:54;;;;;;;11.67;8.70;;;4.10;99.90;;;;;;5042802;28;20445;-70
2023/11/30 12:32:20;;;;;;;12.10;9.20;;;4.10;99.90;;;;;;5040955;28;20943;-69
2023/11/30 12:34:45;;;;;;;11.37;10.17;;;4.00;99.90;;;;;;5041627;28;20185;-69
2023/11/30 12:37:11;;;;;;;12.70;9.43;;;4.10;99.90;;;;;;5041135;28;20283;-70
2023/11/30 12:39:37;;;;;;;11.67;9.07;;;4.20;99.90;;;;;;5035255;28;20198;-70
2023/11/30 12:42:03;;;;;;;13.93;10.27;;;4.30;99.90;;;;;;5052042;28;20408;-69